createdAt,value
2023-04-18T00:00:29.278Z,0.00
2023-04-18T00:01:29.259Z,0.00
2023-04-18T00:02:29.288Z,0.00
2023-04-18T00:03:29.394Z,0.00
2023-04-18T00:04:29.293Z,0.00
2023-04-18T00:05:29.291Z,0.00
2023-04-18T00:06:29.188Z,0.00
2023-04-18T00:07:29.207Z,0.00
2023-04-18T00:08:29.166Z,0.00
2023-04-18T00:09:29.233Z,0.00
2023-04-18T00:10:29.149Z,0.00
2023-04-18T00:11:29.127Z,0.00
2023-04-18T00:12:29.123Z,0.00
2023-04-18T00:13:29.118Z,0.00
2023-04-18T00:14:29.118Z,0.00
2023-04-18T00:15:29.101Z,0.00
2023-04-18T00:16:29.083Z,0.00
2023-04-18T00:17:29.091Z,0.00
2023-04-18T00:18:29.108Z,0.00
2023-04-18T00:19:29.021Z,0.00
2023-04-18T00:20:28.999Z,0.00
2023-04-18T00:21:29.022Z,0.00
2023-04-18T00:22:28.998Z,0.00
2023-04-18T00:23:29.020Z,0.00
2023-04-18T00:24:28.980Z,0.00
2023-04-18T00:25:29.103Z,0.00
2023-04-18T00:26:28.920Z,0.00
2023-04-18T00:27:28.980Z,0.00
2023-04-18T00:28:28.936Z,0.00
2023-04-18T00:29:28.875Z,0.00
2023-04-18T00:30:28.872Z,0.00
2023-04-18T00:31:28.929Z,0.00
2023-04-18T00:32:28.867Z,0.00
2023-04-18T00:33:28.861Z,0.00
2023-04-18T00:34:28.818Z,0.00
2023-04-18T00:35:28.808Z,0.00
2023-04-18T00:36:28.790Z,0.00
2023-04-18T00:37:28.782Z,0.00
2023-04-18T00:38:28.783Z,0.00
2023-04-18T00:39:28.753Z,0.00
2023-04-18T00:40:28.740Z,0.00
2023-04-18T00:41:28.730Z,0.00
2023-04-18T00:42:28.724Z,0.00
2023-04-18T00:43:28.721Z,0.00
2023-04-18T00:44:28.716Z,0.00
2023-04-18T00:45:28.682Z,0.00
2023-04-18T00:46:28.691Z,0.00
2023-04-18T00:47:28.687Z,0.00
2023-04-18T00:48:28.629Z,0.00
2023-04-18T00:49:28.647Z,0.00
2023-04-18T00:50:28.609Z,0.00
2023-04-18T00:51:28.600Z,0.00
2023-04-18T00:52:28.577Z,0.00
2023-04-18T00:53:28.589Z,0.00
2023-04-18T00:54:28.555Z,0.00
2023-04-18T00:55:28.555Z,0.00
2023-04-18T00:56:28.531Z,0.00
2023-04-18T00:57:28.511Z,0.00
2023-04-18T00:58:28.510Z,0.00
2023-04-18T00:59:28.481Z,0.00
2023-04-18T01:00:28.487Z,0.00
2023-04-18T01:01:28.531Z,0.00
2023-04-18T01:02:28.491Z,0.00
2023-04-18T01:03:28.590Z,0.00
2023-04-18T01:04:28.511Z,0.00
2023-04-18T01:05:28.420Z,0.00
2023-04-18T01:06:28.409Z,0.00
2023-04-18T01:07:28.384Z,0.00
2023-04-18T01:08:28.402Z,0.00
2023-04-18T01:09:28.394Z,0.00
2023-04-18T01:10:28.344Z,0.00
2023-04-18T01:11:28.336Z,0.00
2023-04-18T01:12:28.311Z,0.00
2023-04-18T01:13:28.305Z,0.00
2023-04-18T01:15:38.136Z,0.00
2023-04-18T01:16:38.075Z,0.00
2023-04-18T01:17:38.105Z,0.00
2023-04-18T01:18:38.048Z,0.00
2023-04-18T01:19:38.049Z,0.00
2023-04-18T01:20:38.013Z,0.00
2023-04-18T01:21:38.012Z,0.00
2023-04-18T01:22:38.015Z,0.00
2023-04-18T01:23:38.010Z,0.00
2023-04-18T01:24:37.989Z,0.00
2023-04-18T01:25:37.962Z,0.00
2023-04-18T01:26:37.934Z,0.00
2023-04-18T01:27:37.926Z,0.00
2023-04-18T01:28:37.944Z,0.00
2023-04-18T01:29:39.004Z,0.00
2023-04-18T01:30:37.896Z,0.00
2023-04-18T01:31:37.906Z,0.00
2023-04-18T01:32:37.898Z,0.00
2023-04-18T01:33:37.848Z,0.00
2023-04-18T01:34:37.844Z,0.00
2023-04-18T01:35:37.817Z,0.00
2023-04-18T01:36:37.796Z,0.00
2023-04-18T01:37:37.829Z,0.00
2023-04-18T01:38:37.778Z,0.00
2023-04-18T01:39:37.806Z,0.00
2023-04-18T01:40:37.754Z,0.00
2023-04-18T01:41:37.768Z,0.00
2023-04-18T01:42:37.711Z,0.00
2023-04-18T01:43:37.728Z,0.00
2023-04-18T01:44:37.726Z,0.00
2023-04-18T01:45:37.698Z,0.00
2023-04-18T01:46:37.715Z,0.00
2023-04-18T01:47:37.684Z,0.00
2023-04-18T01:48:37.653Z,0.00
2023-04-18T01:49:37.759Z,0.00
2023-04-18T01:50:37.638Z,0.00
2023-04-18T01:51:37.597Z,0.00
2023-04-18T01:52:37.594Z,0.00
2023-04-18T01:53:37.601Z,0.00
2023-04-18T01:54:37.559Z,0.00
2023-04-18T01:55:37.552Z,0.00
2023-04-18T01:56:37.538Z,0.00
2023-04-18T01:57:37.515Z,0.00
2023-04-18T01:58:37.562Z,0.00
2023-04-18T01:59:37.558Z,0.00
2023-04-18T02:00:37.499Z,0.00
2023-04-18T02:01:37.470Z,0.00
2023-04-18T02:02:37.563Z,0.00
2023-04-18T02:03:37.632Z,0.00
2023-04-18T02:04:37.452Z,0.00
2023-04-18T02:05:37.422Z,0.00
2023-04-18T02:06:37.399Z,0.00
2023-04-18T02:07:37.382Z,0.00
2023-04-18T02:08:37.388Z,0.00
2023-04-18T02:09:37.377Z,0.00
2023-04-18T02:10:37.375Z,0.00
2023-04-18T02:11:37.331Z,0.00
2023-04-18T02:12:37.337Z,0.00
2023-04-18T02:13:37.349Z,0.00
2023-04-18T02:14:37.310Z,0.00
2023-04-18T02:15:37.281Z,0.00
2023-04-18T02:16:37.322Z,0.00
2023-04-18T02:17:37.258Z,0.00
2023-04-18T02:18:37.259Z,0.00
2023-04-18T02:19:37.225Z,0.00
2023-04-18T02:20:37.242Z,0.00
2023-04-18T02:21:37.195Z,0.00
2023-04-18T02:22:37.184Z,0.00
2023-04-18T02:23:37.179Z,0.00
2023-04-18T02:24:37.170Z,0.00
2023-04-18T02:25:37.175Z,0.00
2023-04-18T02:26:37.133Z,0.00
2023-04-18T02:27:37.112Z,0.00
2023-04-18T02:28:37.136Z,0.00
2023-04-18T02:29:37.149Z,0.00
2023-04-18T02:30:37.101Z,0.00
2023-04-18T02:31:37.141Z,0.00
2023-04-18T02:32:37.093Z,0.00
2023-04-18T02:33:37.043Z,0.00
2023-04-18T02:34:37.065Z,0.00
2023-04-18T02:35:37.002Z,0.00
2023-04-18T02:36:37.022Z,0.00
2023-04-18T02:37:36.987Z,0.00
2023-04-18T02:38:36.983Z,0.00
2023-04-18T02:39:36.974Z,0.00
2023-04-18T02:40:36.949Z,0.00
2023-04-18T02:41:36.930Z,0.00
2023-04-18T02:42:36.914Z,0.00
2023-04-18T02:43:36.903Z,0.00
2023-04-18T02:44:36.907Z,0.00
2023-04-18T02:45:36.892Z,0.00
2023-04-18T02:46:36.866Z,0.00
2023-04-18T02:47:43.807Z,0.00
2023-04-18T02:48:37.851Z,0.00
2023-04-18T02:49:36.863Z,0.00
2023-04-18T02:50:36.823Z,0.00
2023-04-18T02:51:36.805Z,0.00
2023-04-18T02:52:36.796Z,0.00
2023-04-18T02:53:36.769Z,0.00
2023-04-18T02:54:36.772Z,0.00
2023-04-18T02:55:36.734Z,0.00
2023-04-18T02:56:36.737Z,0.00
2023-04-18T02:57:36.706Z,0.00
2023-04-18T02:58:36.692Z,0.00
2023-04-18T02:59:36.705Z,0.00
2023-04-18T03:00:36.688Z,0.00
2023-04-18T03:01:36.712Z,0.00
2023-04-18T03:02:36.703Z,0.00
2023-04-18T03:03:36.676Z,0.00
2023-04-18T03:04:36.721Z,0.00
2023-04-18T03:05:36.598Z,0.00
2023-04-18T03:06:36.602Z,0.00
2023-04-18T03:07:36.577Z,0.00
2023-04-18T03:08:36.566Z,0.00
2023-04-18T03:09:36.735Z,0.00
2023-04-18T03:10:36.622Z,0.00
2023-04-18T03:11:36.558Z,0.00
2023-04-18T03:12:36.518Z,0.00
2023-04-18T03:13:36.511Z,0.00
2023-04-18T03:14:36.497Z,0.00
2023-04-18T03:15:36.505Z,0.00
2023-04-18T03:16:36.489Z,0.00
2023-04-18T03:17:36.493Z,0.00
2023-04-18T03:18:36.507Z,0.00
2023-04-18T03:19:36.413Z,0.00
2023-04-18T03:20:36.420Z,0.00
2023-04-18T03:21:36.396Z,0.00
2023-04-18T03:22:36.379Z,0.00
2023-04-18T03:23:36.383Z,0.00
2023-04-18T03:24:36.378Z,0.00
2023-04-18T03:25:36.341Z,0.00
2023-04-18T03:26:36.332Z,0.00
2023-04-18T03:27:36.314Z,0.00
2023-04-18T03:28:36.307Z,0.00
2023-04-18T03:29:36.302Z,0.00
2023-04-18T03:30:36.276Z,0.00
2023-04-18T03:31:36.295Z,0.00
2023-04-18T03:32:36.360Z,0.00
2023-04-18T03:33:36.264Z,0.00
2023-04-18T03:34:36.228Z,0.00
2023-04-18T03:35:36.228Z,0.00
2023-04-18T03:36:36.189Z,0.00
2023-04-18T03:37:36.187Z,0.00
2023-04-18T03:38:36.195Z,0.00
2023-04-18T03:39:36.183Z,0.00
2023-04-18T03:40:36.147Z,0.00
2023-04-18T03:41:36.124Z,0.00
2023-04-18T03:42:36.106Z,0.00
2023-04-18T03:43:36.126Z,0.00
2023-04-18T03:44:36.094Z,0.00
2023-04-18T03:45:36.060Z,0.00
2023-04-18T03:46:36.133Z,0.00
2023-04-18T03:47:36.053Z,0.00
2023-04-18T03:48:36.082Z,0.00
2023-04-18T03:49:36.028Z,0.00
2023-04-18T03:50:35.998Z,0.00
2023-04-18T03:51:36.006Z,0.00
2023-04-18T03:52:35.997Z,0.00
2023-04-18T03:53:35.975Z,0.00
2023-04-18T03:54:35.957Z,0.00
2023-04-18T03:55:35.928Z,0.00
2023-04-18T03:56:35.950Z,0.00
2023-04-18T03:57:35.935Z,0.00
2023-04-18T03:58:35.919Z,0.00
2023-04-18T03:59:35.877Z,0.00
2023-04-18T04:00:35.872Z,0.00
2023-04-18T04:01:35.867Z,0.00
2023-04-18T04:02:35.927Z,0.00
2023-04-18T04:03:36.009Z,0.00
2023-04-18T04:04:35.836Z,0.00
2023-04-18T04:05:35.810Z,0.00
2023-04-18T04:06:35.793Z,0.00
2023-04-18T04:07:35.774Z,0.00
2023-04-18T04:08:35.807Z,0.00
2023-04-18T04:09:35.743Z,0.00
2023-04-18T04:10:35.755Z,0.00
2023-04-18T04:11:35.719Z,0.00
2023-04-18T04:12:35.712Z,0.00
2023-04-18T04:13:35.708Z,0.00
2023-04-18T04:14:35.695Z,0.00
2023-04-18T04:15:35.696Z,0.00
2023-04-18T04:16:35.843Z,0.00
2023-04-18T04:17:35.678Z,0.00
2023-04-18T04:18:35.643Z,0.00
2023-04-18T04:19:35.610Z,0.00
2023-04-18T04:20:35.606Z,0.00
2023-04-18T04:21:35.582Z,0.00
2023-04-18T04:22:35.574Z,0.00
2023-04-18T04:23:35.573Z,0.00
2023-04-18T04:24:35.556Z,0.00
2023-04-18T04:25:35.552Z,0.00
2023-04-18T04:26:35.537Z,0.00
2023-04-18T04:27:35.519Z,0.00
2023-04-18T04:28:35.514Z,0.00
2023-04-18T04:29:35.483Z,0.00
2023-04-18T04:30:35.504Z,0.00
2023-04-18T04:31:35.471Z,0.00
2023-04-18T04:32:35.455Z,0.00
2023-04-18T04:33:35.453Z,0.00
2023-04-18T04:34:35.410Z,0.00
2023-04-18T04:35:35.393Z,0.00
2023-04-18T04:36:35.415Z,0.00
2023-04-18T04:37:35.393Z,0.00
2023-04-18T04:38:35.383Z,0.00
2023-04-18T04:39:35.358Z,0.00
2023-04-18T04:40:35.338Z,0.00
2023-04-18T04:41:35.321Z,0.00
2023-04-18T04:42:35.332Z,5.62
2023-04-18T04:43:35.319Z,5.62
2023-04-18T04:44:35.305Z,5.62
2023-04-18T04:45:35.343Z,5.62
2023-04-18T04:46:35.258Z,5.62
2023-04-18T04:47:35.276Z,5.62
2023-04-18T04:48:35.262Z,5.62
2023-04-18T04:49:35.199Z,5.62
2023-04-18T04:50:35.204Z,5.62
2023-04-18T04:51:35.191Z,5.62
2023-04-18T04:52:35.227Z,5.62
2023-04-18T04:53:35.162Z,5.62
2023-04-18T04:54:35.145Z,5.62
2023-04-18T04:55:35.117Z,5.62
2023-04-18T04:56:35.119Z,5.62
2023-04-18T04:57:35.113Z,5.62
2023-04-18T04:58:35.139Z,5.62
2023-04-18T04:59:35.084Z,11.25
2023-04-18T05:00:35.064Z,11.25
2023-04-18T05:01:35.072Z,11.25
2023-04-18T05:02:35.119Z,11.25
2023-04-18T05:03:35.488Z,11.25
2023-04-18T05:04:35.096Z,11.25
2023-04-18T05:05:34.986Z,11.25
2023-04-18T05:06:34.969Z,11.25
2023-04-18T05:07:35.015Z,11.25
2023-04-18T05:08:35.006Z,11.25
2023-04-18T05:09:34.962Z,11.25
2023-04-18T05:10:34.930Z,11.25
2023-04-18T05:11:34.913Z,11.25
2023-04-18T05:12:34.932Z,11.25
2023-04-18T05:13:34.899Z,11.25
2023-04-18T05:14:34.886Z,11.25
2023-04-18T05:15:34.854Z,11.25
2023-04-18T05:16:34.873Z,11.25
2023-04-18T05:17:34.863Z,11.25
2023-04-18T05:18:35.100Z,11.25
2023-04-18T05:19:34.822Z,11.25
2023-04-18T05:20:34.864Z,11.25
2023-04-18T05:21:34.788Z,11.25
2023-04-18T05:22:34.787Z,11.25
2023-04-18T05:23:34.763Z,16.88
2023-04-18T05:24:34.744Z,16.88
2023-04-18T05:25:34.715Z,16.88
2023-04-18T05:26:34.766Z,16.88
2023-04-18T05:27:34.741Z,16.88
2023-04-18T05:28:35.365Z,16.88
2023-04-18T05:29:34.680Z,16.88
2023-04-18T05:30:34.679Z,16.88
2023-04-18T05:31:34.708Z,22.50
2023-04-18T05:32:34.677Z,22.50
2023-04-18T05:33:34.667Z,22.50
2023-04-18T05:34:35.733Z,22.50
2023-04-18T05:35:34.633Z,22.50
2023-04-18T05:36:34.618Z,22.50
2023-04-18T05:37:34.589Z,22.50
2023-04-18T05:38:34.602Z,22.50
2023-04-18T05:39:34.580Z,28.12
2023-04-18T05:40:34.530Z,28.12
2023-04-18T05:41:34.544Z,28.12
2023-04-18T05:42:34.529Z,28.12
2023-04-18T05:43:34.489Z,28.12
2023-04-18T05:44:34.467Z,28.12
2023-04-18T05:45:34.465Z,28.12
2023-04-18T05:46:34.511Z,28.12
2023-04-18T05:47:34.454Z,28.12
2023-04-18T05:48:34.430Z,28.12
2023-04-18T05:49:34.425Z,33.75
2023-04-18T05:50:34.400Z,33.75
2023-04-18T05:51:34.371Z,39.38
2023-04-18T05:52:34.388Z,39.38
2023-04-18T05:53:34.384Z,45.00
2023-04-18T05:54:34.346Z,45.00
2023-04-18T05:55:34.350Z,45.00
2023-04-18T05:56:34.316Z,50.62
2023-04-18T05:57:34.293Z,50.62
2023-04-18T05:58:34.340Z,50.62
2023-04-18T05:59:34.270Z,56.25
2023-04-18T06:00:34.312Z,56.25
2023-04-18T06:01:34.281Z,56.25
2023-04-18T06:02:34.338Z,56.25
2023-04-18T06:03:34.346Z,61.88
2023-04-18T06:04:34.336Z,61.88
2023-04-18T06:05:34.260Z,67.50
2023-04-18T06:06:34.162Z,67.50
2023-04-18T06:07:34.152Z,61.88
2023-04-18T06:08:34.216Z,56.25
2023-04-18T06:09:34.118Z,56.25
2023-04-18T06:10:34.134Z,56.25
2023-04-18T06:11:34.116Z,61.88
2023-04-18T06:12:34.125Z,61.88
2023-04-18T06:13:34.105Z,67.50
2023-04-18T06:14:34.074Z,67.50
2023-04-18T06:15:34.051Z,73.12
2023-04-18T06:16:34.101Z,73.12
2023-04-18T06:17:34.071Z,78.75
2023-04-18T06:18:34.054Z,78.75
2023-04-18T06:19:33.998Z,78.75
2023-04-18T06:20:33.968Z,78.75
2023-04-18T06:21:33.969Z,78.75
2023-04-18T06:22:34.029Z,84.38
2023-04-18T06:23:33.946Z,84.38
2023-04-18T06:24:33.924Z,78.75
2023-04-18T06:25:33.918Z,78.75
2023-04-18T06:26:33.899Z,73.12
2023-04-18T06:27:33.947Z,73.12
2023-04-18T06:28:33.871Z,67.50
2023-04-18T06:29:34.666Z,67.50
2023-04-18T06:30:33.855Z,67.50
2023-04-18T06:31:33.917Z,67.50
2023-04-18T06:32:33.903Z,73.12
2023-04-18T06:33:33.814Z,78.75
2023-04-18T06:34:33.796Z,78.75
2023-04-18T06:35:33.787Z,73.12
2023-04-18T06:36:33.783Z,67.50
2023-04-18T06:37:33.761Z,67.50
2023-04-18T06:38:33.750Z,67.50
2023-04-18T06:39:33.728Z,73.12
2023-04-18T06:40:33.711Z,73.12
2023-04-18T06:41:33.710Z,78.75
2023-04-18T06:42:33.715Z,84.38
2023-04-18T06:43:33.674Z,84.38
2023-04-18T06:44:33.670Z,78.75
2023-04-18T06:45:33.693Z,73.12
2023-04-18T06:46:33.630Z,73.12
2023-04-18T06:47:33.726Z,73.12
2023-04-18T06:48:33.600Z,78.75
2023-04-18T06:49:33.585Z,73.12
2023-04-18T06:50:33.563Z,73.12
2023-04-18T06:51:33.562Z,78.75
2023-04-18T06:52:33.585Z,78.75
2023-04-18T06:53:33.546Z,78.75
2023-04-18T06:54:33.525Z,78.75
2023-04-18T06:55:33.523Z,73.12
2023-04-18T06:56:34.980Z,73.12
2023-04-18T06:57:33.519Z,73.12
2023-04-18T06:58:33.475Z,73.12
2023-04-18T06:59:33.457Z,73.12
2023-04-18T07:00:33.459Z,73.12
2023-04-18T07:01:33.618Z,67.50
2023-04-18T07:02:33.503Z,67.50
2023-04-18T07:03:33.449Z,73.12
2023-04-18T07:04:33.395Z,73.12
2023-04-18T07:05:33.397Z,73.12
2023-04-18T07:06:33.358Z,73.12
2023-04-18T07:07:33.363Z,73.12
2023-04-18T07:08:33.322Z,73.12
2023-04-18T07:09:33.332Z,73.12
2023-04-18T07:10:33.293Z,73.12
2023-04-18T07:11:33.291Z,73.12
2023-04-18T07:12:33.423Z,73.12
2023-04-18T07:13:33.272Z,73.12
2023-04-18T07:14:34.273Z,73.12
2023-04-18T07:15:33.246Z,73.12
2023-04-18T07:16:33.248Z,73.12
2023-04-18T07:17:33.308Z,73.12
2023-04-18T07:18:38.128Z,73.12
2023-04-18T07:19:34.185Z,73.12
2023-04-18T07:20:33.163Z,73.12
2023-04-18T07:21:33.184Z,73.12
2023-04-18T07:22:33.158Z,73.12
2023-04-18T07:23:33.149Z,73.12
2023-04-18T07:24:33.123Z,73.12
2023-04-18T07:25:33.132Z,73.12
2023-04-18T07:26:33.092Z,73.12
2023-04-18T07:27:33.130Z,73.12
2023-04-18T07:28:33.060Z,73.12
2023-04-18T07:29:33.046Z,61.88
2023-04-18T07:30:33.034Z,61.88
2023-04-18T07:31:33.070Z,61.88
2023-04-18T07:32:33.090Z,78.75
2023-04-18T07:33:33.000Z,90.00
2023-04-18T07:34:32.992Z,95.62
2023-04-18T07:35:32.970Z,95.62
2023-04-18T07:36:32.944Z,106.88
2023-04-18T07:37:32.968Z,123.75
2023-04-18T07:38:32.937Z,118.12
2023-04-18T07:39:32.927Z,112.50
2023-04-18T07:40:32.907Z,106.88
2023-04-18T07:41:32.891Z,101.25
2023-04-18T07:42:32.890Z,101.25
2023-04-18T07:43:32.873Z,106.88
2023-04-18T07:44:32.868Z,112.50
2023-04-18T07:45:32.837Z,118.12
2023-04-18T07:46:32.845Z,106.88
2023-04-18T07:47:33.713Z,101.25
2023-04-18T07:48:32.802Z,106.88
2023-04-18T07:49:32.782Z,112.50
2023-04-18T07:50:32.762Z,118.12
2023-04-18T07:51:32.781Z,118.12
2023-04-18T07:52:32.753Z,112.50
2023-04-18T07:53:32.724Z,118.12
2023-04-18T07:54:32.709Z,129.38
2023-04-18T07:55:32.704Z,123.75
2023-04-18T07:56:32.689Z,123.75
2023-04-18T07:57:32.701Z,140.62
2023-04-18T07:58:32.653Z,140.62
2023-04-18T07:59:32.648Z,146.25
2023-04-18T08:00:32.647Z,151.88
2023-04-18T08:01:32.626Z,146.25
2023-04-18T08:02:32.736Z,135.00
2023-04-18T08:03:32.751Z,135.00
2023-04-18T08:04:32.769Z,123.75
2023-04-18T08:05:32.626Z,106.88
2023-04-18T08:06:32.551Z,106.88
2023-04-18T08:07:32.550Z,106.88
2023-04-18T08:08:32.525Z,101.25
2023-04-18T08:09:32.514Z,106.88
2023-04-18T08:10:32.500Z,106.88
2023-04-18T08:11:32.477Z,106.88
2023-04-18T08:12:32.480Z,118.12
2023-04-18T08:13:32.452Z,118.12
2023-04-18T08:14:32.438Z,123.75
2023-04-18T08:15:32.714Z,123.75
2023-04-18T08:16:32.533Z,129.38
2023-04-18T08:17:32.422Z,129.38
2023-04-18T08:18:32.378Z,135.00
2023-04-18T08:19:32.369Z,140.62
2023-04-18T08:20:32.401Z,140.62
2023-04-18T08:21:32.402Z,146.25
2023-04-18T08:22:32.324Z,140.62
2023-04-18T08:23:32.341Z,146.25
2023-04-18T08:24:32.298Z,146.25
2023-04-18T08:25:32.298Z,157.50
2023-04-18T08:26:32.293Z,163.12
2023-04-18T08:27:32.285Z,157.50
2023-04-18T08:28:32.250Z,146.25
2023-04-18T08:29:32.239Z,140.62
2023-04-18T08:30:32.245Z,146.25
2023-04-18T08:31:32.260Z,157.50
2023-04-18T08:32:32.231Z,163.12
2023-04-18T08:33:32.208Z,163.12
2023-04-18T08:34:32.166Z,163.12
2023-04-18T08:35:32.161Z,157.50
2023-04-18T08:36:32.143Z,151.88
2023-04-18T08:37:32.156Z,157.50
2023-04-18T08:38:32.133Z,168.75
2023-04-18T08:39:32.102Z,168.75
2023-04-18T08:40:32.085Z,168.75
2023-04-18T08:41:32.069Z,168.75
2023-04-18T08:42:32.105Z,174.38
2023-04-18T08:43:32.063Z,174.38
2023-04-18T08:44:32.021Z,174.38
2023-04-18T08:45:32.041Z,163.12
2023-04-18T08:46:32.007Z,151.88
2023-04-18T08:47:32.021Z,140.62
2023-04-18T08:48:31.979Z,135.00
2023-04-18T08:49:31.970Z,129.38
2023-04-18T08:50:31.989Z,123.75
2023-04-18T08:51:31.962Z,123.75
2023-04-18T08:52:31.919Z,129.38
2023-04-18T08:53:31.896Z,129.38
2023-04-18T08:54:31.904Z,123.75
2023-04-18T08:55:31.868Z,129.38
2023-04-18T08:56:31.877Z,129.38
2023-04-18T08:57:31.851Z,129.38
2023-04-18T08:58:31.891Z,135.00
2023-04-18T08:59:31.829Z,140.62
2023-04-18T09:00:31.806Z,140.62
2023-04-18T09:01:31.822Z,140.62
2023-04-18T09:02:31.820Z,129.38
2023-04-18T09:03:31.830Z,129.38
2023-04-18T09:04:31.869Z,140.62
2023-04-18T09:05:31.746Z,151.88
2023-04-18T09:06:31.737Z,146.25
2023-04-18T09:07:31.707Z,146.25
2023-04-18T09:08:31.690Z,157.50
2023-04-18T09:09:31.681Z,157.50
2023-04-18T09:10:31.671Z,163.12
2023-04-18T09:11:31.741Z,168.75
2023-04-18T09:12:31.637Z,174.38
2023-04-18T09:13:31.629Z,185.62
2023-04-18T09:14:31.623Z,180.00
2023-04-18T09:15:31.652Z,180.00
2023-04-18T09:16:31.620Z,174.38
2023-04-18T09:17:31.639Z,163.12
2023-04-18T09:18:31.583Z,168.75
2023-04-18T09:19:31.563Z,180.00
2023-04-18T09:20:31.534Z,168.75
2023-04-18T09:21:31.525Z,168.75
2023-04-18T09:22:31.489Z,163.12
2023-04-18T09:23:31.509Z,151.88
2023-04-18T09:24:31.478Z,146.25
2023-04-18T09:25:31.465Z,151.88
2023-04-18T09:26:31.472Z,163.12
2023-04-18T09:27:31.446Z,174.38
2023-04-18T09:28:31.421Z,163.12
2023-04-18T09:29:31.419Z,151.88
2023-04-18T09:30:31.395Z,140.62
2023-04-18T09:31:31.461Z,163.12
2023-04-18T09:32:31.414Z,168.75
2023-04-18T09:33:31.399Z,146.25
2023-04-18T09:34:31.349Z,140.62
2023-04-18T09:35:31.345Z,140.62
2023-04-18T09:36:31.484Z,151.88
2023-04-18T09:37:31.332Z,163.12
2023-04-18T09:38:31.289Z,168.75
2023-04-18T09:39:31.282Z,180.00
2023-04-18T09:40:31.280Z,191.25
2023-04-18T09:41:31.247Z,230.62
2023-04-18T09:42:31.264Z,270.00
2023-04-18T09:43:31.225Z,281.25
2023-04-18T09:44:31.207Z,286.88
2023-04-18T09:45:31.206Z,298.12
2023-04-18T09:46:31.321Z,298.12
2023-04-18T09:47:31.217Z,320.62
2023-04-18T09:48:31.164Z,309.38
2023-04-18T09:49:31.147Z,331.88
2023-04-18T09:50:31.133Z,348.75
2023-04-18T09:51:31.121Z,354.38
2023-04-18T09:52:31.142Z,399.38
2023-04-18T09:53:31.095Z,382.50
2023-04-18T09:54:31.084Z,388.12
2023-04-18T09:55:31.062Z,427.50
2023-04-18T09:56:31.155Z,331.88
2023-04-18T09:57:31.038Z,399.38
2023-04-18T09:58:31.019Z,410.62
2023-04-18T09:59:31.016Z,427.50
2023-04-18T10:00:30.990Z,427.50
2023-04-18T10:01:31.053Z,388.12
2023-04-18T10:02:31.049Z,421.88
2023-04-18T10:03:31.010Z,427.50
2023-04-18T10:04:31.085Z,405.00
2023-04-18T10:05:31.008Z,376.88
2023-04-18T10:06:30.921Z,455.62
2023-04-18T10:07:30.895Z,506.25
2023-04-18T10:08:30.878Z,348.75
2023-04-18T10:09:30.869Z,371.25
2023-04-18T10:10:30.877Z,450.00
2023-04-18T10:11:30.889Z,472.50
2023-04-18T10:12:30.829Z,450.00
2023-04-18T10:13:30.821Z,365.62
2023-04-18T10:14:30.786Z,360.00
2023-04-18T10:15:30.801Z,393.75
2023-04-18T10:16:30.861Z,360.00
2023-04-18T10:17:30.795Z,444.38
2023-04-18T10:18:30.792Z,438.75
2023-04-18T10:19:30.750Z,472.50
2023-04-18T10:20:30.704Z,528.75
2023-04-18T10:21:30.699Z,388.12
2023-04-18T10:22:30.713Z,309.38
2023-04-18T10:23:30.681Z,320.62
2023-04-18T10:24:30.663Z,309.38
2023-04-18T10:25:30.696Z,303.75
2023-04-18T10:26:30.701Z,298.12
2023-04-18T10:27:30.641Z,433.12
2023-04-18T10:28:30.611Z,393.75
2023-04-18T10:29:30.601Z,365.62
2023-04-18T10:30:30.598Z,585.00
2023-04-18T10:31:30.612Z,405.00
2023-04-18T10:32:30.562Z,483.75
2023-04-18T10:33:32.177Z,393.75
2023-04-18T10:34:30.527Z,2008.12
2023-04-18T10:35:30.512Z,343.12
2023-04-18T10:36:30.543Z,382.50
2023-04-18T10:37:30.491Z,298.12
2023-04-18T10:38:30.479Z,281.25
2023-04-18T10:39:30.470Z,236.25
2023-04-18T10:40:30.480Z,281.25
2023-04-18T10:41:30.441Z,376.88
2023-04-18T10:42:30.431Z,343.12
2023-04-18T10:43:30.425Z,596.25
2023-04-18T10:44:30.395Z,478.12
2023-04-18T10:45:30.373Z,376.88
2023-04-18T10:46:32.749Z,315.00
2023-04-18T10:47:30.444Z,545.62
2023-04-18T10:48:30.390Z,905.62
2023-04-18T10:49:32.586Z,658.12
2023-04-18T10:50:30.308Z,540.00
2023-04-18T10:51:30.330Z,708.75
2023-04-18T10:52:30.294Z,2278.12
2023-04-18T10:53:30.282Z,736.88
2023-04-18T10:54:30.264Z,427.50
2023-04-18T10:55:30.240Z,478.12
2023-04-18T10:56:30.252Z,1113.75
2023-04-18T10:57:30.210Z,585.00
2023-04-18T10:58:30.210Z,405.00
2023-04-18T10:59:30.189Z,371.25
2023-04-18T11:00:30.184Z,399.38
2023-04-18T11:01:32.507Z,360.00
2023-04-18T11:02:30.481Z,264.38
2023-04-18T11:03:30.245Z,298.12
2023-04-18T11:04:30.233Z,472.50
2023-04-18T11:05:30.108Z,337.50
2023-04-18T11:06:30.119Z,472.50
2023-04-18T11:07:30.129Z,416.25
2023-04-18T11:08:30.082Z,399.38
2023-04-18T11:09:30.054Z,320.62
2023-04-18T11:10:30.049Z,286.88
2023-04-18T11:11:30.102Z,303.75
2023-04-18T11:12:30.013Z,275.62
2023-04-18T11:13:30.001Z,275.62
2023-04-18T11:14:29.982Z,337.50
2023-04-18T11:15:31.096Z,433.12
2023-04-18T11:16:30.024Z,489.38
2023-04-18T11:17:29.975Z,416.25
2023-04-18T11:18:29.937Z,331.88
2023-04-18T11:19:29.921Z,348.75
2023-04-18T11:20:29.976Z,438.75
2023-04-18T11:21:30.801Z,517.50
2023-04-18T11:22:29.890Z,590.62
2023-04-18T11:23:29.858Z,601.88
2023-04-18T11:24:29.851Z,990.00
2023-04-18T11:25:29.886Z,1096.88
2023-04-18T11:26:29.835Z,1074.38
2023-04-18T11:27:29.835Z,1580.62
2023-04-18T11:28:29.807Z,1288.12
2023-04-18T11:29:29.774Z,545.62
2023-04-18T11:30:29.832Z,573.75
2023-04-18T11:31:29.785Z,450.00
2023-04-18T11:32:29.906Z,517.50
2023-04-18T11:33:29.747Z,669.38
2023-04-18T11:34:29.711Z,832.50
2023-04-18T11:35:29.717Z,1023.75
2023-04-18T11:36:29.696Z,905.62
2023-04-18T11:37:29.682Z,1040.62
2023-04-18T11:38:29.663Z,1957.50
2023-04-18T11:39:29.654Z,2289.38
2023-04-18T11:40:29.699Z,2176.88
2023-04-18T11:41:29.616Z,1406.25
2023-04-18T11:42:29.618Z,1153.12
2023-04-18T11:43:29.611Z,1468.12
2023-04-18T11:44:29.586Z,2446.88
2023-04-18T11:45:29.599Z,1794.38
2023-04-18T11:46:29.633Z,1096.88
2023-04-18T11:47:29.576Z,2126.25
2023-04-18T11:48:29.531Z,2593.12
2023-04-18T11:49:29.509Z,2643.75
2023-04-18T11:50:29.508Z,2559.38
2023-04-18T11:51:29.523Z,2362.50
2023-04-18T11:52:29.474Z,2525.62
2023-04-18T11:53:29.452Z,2638.12
2023-04-18T11:54:29.445Z,2643.75
2023-04-18T11:55:29.452Z,2300.62
2023-04-18T11:56:29.410Z,2351.25
2023-04-18T11:57:29.402Z,2722.50
2023-04-18T11:58:29.387Z,2902.50
2023-04-18T11:59:29.364Z,2868.75
2023-04-18T12:00:29.389Z,2610.00
2023-04-18T12:01:29.348Z,2137.50
2023-04-18T12:02:29.466Z,2818.12
2023-04-18T12:03:29.746Z,2593.12
2023-04-18T12:04:29.569Z,2531.25
2023-04-18T12:05:29.426Z,2621.25
2023-04-18T12:06:29.404Z,2671.88
2023-04-18T12:07:29.266Z,2739.38
2023-04-18T12:08:29.250Z,2795.62
2023-04-18T12:09:29.237Z,2936.25
2023-04-18T12:10:29.265Z,2728.12
2023-04-18T12:11:29.213Z,2660.62
2023-04-18T12:12:29.199Z,2806.88
2023-04-18T12:13:29.305Z,2790.00
2023-04-18T12:14:29.166Z,2671.88
2023-04-18T12:15:29.182Z,3324.38
2023-04-18T12:16:29.264Z,3285.00
2023-04-18T12:17:29.249Z,2778.75
2023-04-18T12:18:29.123Z,2576.25
2023-04-18T12:19:29.160Z,2520.00
2023-04-18T12:20:29.210Z,2598.75
2023-04-18T12:21:29.172Z,2666.25
2023-04-18T12:22:29.157Z,2531.25
2023-04-18T12:23:29.091Z,2452.50
2023-04-18T12:24:29.143Z,2694.38
2023-04-18T12:25:29.063Z,2497.50
2023-04-18T12:26:29.137Z,2396.25
2023-04-18T12:27:29.005Z,2891.25
2023-04-18T12:28:28.987Z,3105.00
2023-04-18T12:29:28.963Z,2587.50
2023-04-18T12:30:28.986Z,2340.00
2023-04-18T12:31:28.989Z,2109.38
2023-04-18T12:32:28.958Z,2126.25
2023-04-18T12:33:28.927Z,1271.25
2023-04-18T12:34:28.928Z,928.12
2023-04-18T12:35:28.947Z,376.88
2023-04-18T12:36:28.877Z,343.12
2023-04-18T12:37:28.865Z,320.62
2023-04-18T12:38:28.852Z,315.00
2023-04-18T12:39:28.840Z,410.62
2023-04-18T12:40:28.848Z,410.62
2023-04-18T12:41:28.807Z,382.50
2023-04-18T12:42:28.794Z,405.00
2023-04-18T12:43:28.780Z,348.75
2023-04-18T12:44:28.770Z,388.12
2023-04-18T12:45:28.777Z,641.25
2023-04-18T12:46:28.796Z,1338.75
2023-04-18T12:47:28.751Z,978.75
2023-04-18T12:48:28.745Z,388.12
2023-04-18T12:49:28.699Z,298.12
2023-04-18T12:50:28.734Z,264.38